Atlantis — PCDT — position and weather

sailwx.info

Track history (hours):
 
Tides and Currents Weather Stations Pressure Air Temp Water Temp Dewpoint Dewpoint Depression Visibility Wind Speed Wind Dir Waves Ship Positions

Atlantis (Netherlands)

Ship's website: http://www.tallship-company.com/artemis/gb_atlantis.htm

Last reported at 2019-Aug-22 18:10 UTC. Time now 2019-Aug-24 07:45 UTC.
Position N 42°36' E 010°31'.

Length 40 m; draft 4.5 m.

Type: Sailing vessel. MMSI: 246253000.

Date/timePositionNaut miles runAvg speedWind from/ knotsBaromVisibWave heightAir tempDewpointWater temp
2019-Aug-22 18:10N 42°36' E 010°31'7 5.3
2019-Aug-22 16:49N 42°40' E 010°23'4 5.3
2019-Aug-22 16:02N 42°43' E 010°18'0 5.3
2019-Aug-22 15:57N 42°43' E 010°18'1 3.0
2019-Aug-22 15:27N 42°44' E 010°16'2 1.8
2019-Aug-22 14:36N 42°45' E 010°15'0 0.0
2019-Aug-22 13:27N 42°45' E 010°15'1 0.3
2019-Aug-22 10:00N 42°44' E 010°15'3 5.5
2019-Aug-22 09:26N 42°43' E 010°11'4 5.0
2019-Aug-22 08:36N 42°46' E 010°06'1 5.5
2019-Aug-22 08:30N 42°46' E 010°06'2 3.0
2019-Aug-22 08:00N 42°48' E 010°06'0 0.1
2019-Aug-22 07:30N 42°48' E 010°06'0 0.1
2019-Aug-22 06:59N 42°48' E 010°06'2 4.9
2019-Aug-22 06:30N 42°49' E 010°09'2 4.7
2019-Aug-22 06:00N 42°49' E 010°12'0 0.0
2019-Aug-22 05:22N 42°49' E 010°12'0 0.0
2019-Aug-22 04:49N 42°49' E 010°12'0 0.0
2019-Aug-22 04:28N 42°49' E 010°12'0 0.0
2019-Aug-22 03:58N 42°49' E 010°12'0 0.0
2019-Aug-22 03:28N 42°49' E 010°12'0 0.0
2019-Aug-22 02:58N 42°49' E 010°12'0 0.0
2019-Aug-22 02:28N 42°49' E 010°12'0 0.0
2019-Aug-22 01:58N 42°49' E 010°12'0 0.0
2019-Aug-22 01:28N 42°49' E 010°12'0 0.0
2019-Aug-22 00:58N 42°49' E 010°12'0 0.0
2019-Aug-22 00:28N 42°49' E 010°12'0 0.0
2019-Aug-21 23:55N 42°49' E 010°12'0 0.0
2019-Aug-21 23:28N 42°49' E 010°12'0 0.0
2019-Aug-21 22:55N 42°49' E 010°12'0 0.0
2019-Aug-21 22:28N 42°49' E 010°12'0 0.0
2019-Aug-21 21:58N 42°49' E 010°12'0 0.0
2019-Aug-21 21:25N 42°49' E 010°12'0 0.0
2019-Aug-21 20:52N 42°49' E 010°12'0 0.0
2019-Aug-21 20:25N 42°49' E 010°12'0 0.0
2019-Aug-21 19:58N 42°49' E 010°12'0 0.0
2019-Aug-21 19:28N 42°49' E 010°12'0 0.0
2019-Aug-21 18:58N 42°49' E 010°12'0 0.0
2019-Aug-21 18:28N 42°49' E 010°12'0 0.0
2019-Aug-21 17:55N 42°49' E 010°12'0 0.0
2019-Aug-21 17:28N 42°49' E 010°12'0 0.0
2019-Aug-21 17:00N 42°49' E 010°12'3 5.1
2019-Aug-21 16:30N 42°50' E 010°15'3 5.6
2019-Aug-21 16:00N 42°51' E 010°19'1 2.3
2019-Aug-21 15:24N 42°51' E 010°20'0 0.2
2019-Aug-21 14:54N 42°52' E 010°20'2 3.8
2019-Aug-21 14:30N 42°52' E 010°22'2 4.6
2019-Aug-21 13:59N 42°52' E 010°26'0 0.3
2019-Aug-21 12:50N 42°52' E 010°26'0 0.0
2019-Aug-21 12:15N 42°52' E 010°26'0 0.2
2019-Aug-21 11:50N 42°52' E 010°26'0 0.4
2019-Aug-21 11:30N 42°52' E 010°26'2 3.6
2019-Aug-21 11:00N 42°51' E 010°28'3 5.3
2019-Aug-21 10:29N 42°48' E 010°27'3 4.9
2019-Aug-21 09:58N 42°46' E 010°25'1 2.1
2019-Aug-21 09:30N 42°46' E 010°24'0 0.0
2019-Aug-21 09:00N 42°46' E 010°24'0 0.0
2019-Aug-21 08:30N 42°46' E 010°24'0 0.0
2019-Aug-21 08:00N 42°46' E 010°24'0 0.0
2019-Aug-21 07:30N 42°46' E 010°24'0 0.0
2019-Aug-21 07:00N 42°46' E 010°24'0 0.1
2019-Aug-21 06:28N 42°46' E 010°24'0 0.1
2019-Aug-21 05:59N 42°46' E 010°24'0 0.0
2019-Aug-21 05:30N 42°46' E 010°24'0 0.0
2019-Aug-21 05:00N 42°46' E 010°24'0 0.0
2019-Aug-21 04:30N 42°46' E 010°24'0 0.0
2019-Aug-21 03:59N 42°46' E 010°24'0 0.0
2019-Aug-21 03:30N 42°46' E 010°24'0 0.0
2019-Aug-21 02:55N 42°46' E 010°24'0 0.0
2019-Aug-21 02:21N 42°46' E 010°24'0 0.0
2019-Aug-21 01:59N 42°46' E 010°24'0 0.0
2019-Aug-21 01:30N 42°46' E 010°24'0 0.0
2019-Aug-21 01:00N 42°46' E 010°24'0 0.0
2019-Aug-21 00:29N 42°46' E 010°24'0 0.0
2019-Aug-21 00:00N 42°46' E 010°24'0 0.0
2019-Aug-20 23:30N 42°46' E 010°24'0 0.0
2019-Aug-20 23:00N 42°46' E 010°24'0 0.0
2019-Aug-20 22:30N 42°46' E 010°24'0 0.0
2019-Aug-20 21:59N 42°46' E 010°24'0 0.0
2019-Aug-20 21:30N 42°46' E 010°24'0 0.0
2019-Aug-20 20:57N 42°46' E 010°24'0 0.0
2019-Aug-20 20:30N 42°46' E 010°24'0 0.0
2019-Aug-20 19:59N 42°46' E 010°24'0 0.0
2019-Aug-20 19:30N 42°46' E 010°24'0 0.0
2019-Aug-20 18:56N 42°46' E 010°24'0 0.0
2019-Aug-20 17:50N 42°46' E 010°24'0 0.0
2019-Aug-20 16:37N 42°46' E 010°24'0 0.0
2019-Aug-20 16:27N 42°46' E 010°24'0 0.0
2019-Aug-20 15:46N 42°46' E 010°24'0 0.0
2019-Aug-20 13:47N 42°46' E 010°24'0 0.0
2019-Aug-20 13:30N 42°46' E 010°24'0 0.0
2019-Aug-20 12:59N 42°46' E 010°24'0 0.0
2019-Aug-20 12:29N 42°46' E 010°24'0 0.0
2019-Aug-20 11:57N 42°46' E 010°24'0 0.0
2019-Aug-20 11:29N 42°46' E 010°24'0 0.1
2019-Aug-20 10:58N 42°46' E 010°24'0 0.0
2019-Aug-20 10:21N 42°46' E 010°24'0 0.0
2019-Aug-20 09:59N 42°46' E 010°24'2 3.5
2019-Aug-20 09:27N 42°45' E 010°26'3 5.9
2019-Aug-20 09:00N 42°44' E 010°30'3 5.7
2019-Aug-20 08:30N 42°43' E 010°33'3 5.6
2019-Aug-20 08:00N 42°42' E 010°37'3 5.5
2019-Aug-20 07:30N 42°41' E 010°40'3 5.3
2019-Aug-20 07:00N 42°40' E 010°44'3 5.4
2019-Aug-20 06:30N 42°39' E 010°47'3 5.8
2019-Aug-20 06:00N 42°38' E 010°51'3 5.9
2019-Aug-20 05:30N 42°37' E 010°55'3 6.0
2019-Aug-20 04:59N 42°36' E 010°58'3 5.9
2019-Aug-20 04:26N 42°34' E 011°02'2 5.6
2019-Aug-20 04:00N 42°34' E 011°06'2 4.0
2019-Aug-20 03:26N 42°33' E 011°09'0 0.0
2019-Aug-20 02:47N 42°33' E 011°09'0 0.0
2019-Aug-20 02:11N 42°33' E 011°09'0 0.0
2019-Aug-20 01:41N 42°33' E 011°09'0 0.0
2019-Aug-20 01:08N 42°33' E 011°09'0 0.0
2019-Aug-19 21:44N 42°33' E 011°09'0 0.0
2019-Aug-19 21:26N 42°33' E 011°09'0 0.0
2019-Aug-19 20:59N 42°33' E 011°09'0 0.0
2019-Aug-19 19:26N 42°33' E 011°09'0 0.0
2019-Aug-19 17:56N 42°33' E 011°09'0 0.0
2019-Aug-19 17:23N 42°33' E 011°09'0 0.0
2019-Aug-19 16:56N 42°33' E 011°09'0 0.0
2019-Aug-19 16:14N 42°33' E 011°09'0 0.0
2019-Aug-19 15:56N 42°33' E 011°09'0 0.0
2019-Aug-19 15:23N 42°33' E 011°09'0 0.0
2019-Aug-19 14:59N 42°33' E 011°09'0 0.0
2019-Aug-19 14:26N 42°33' E 011°09'0 0.0
2019-Aug-19 13:56N 42°33' E 011°09'0 0.0
2019-Aug-19 13:26N 42°33' E 011°09'0 0.0
2019-Aug-19 12:32N 42°33' E 011°09'0 0.0
2019-Aug-19 11:38N 42°33' E 011°09'0 0.0
2019-Aug-19 11:26N 42°33' E 011°09'0 0.0
2019-Aug-19 10:59N 42°33' E 011°09'0 0.0
2019-Aug-19 10:05N 42°33' E 011°09'0 0.0
2019-Aug-19 09:56N 42°33' E 011°09'0 0.0
2019-Aug-19 09:14N 42°33' E 011°09'0 0.0
2019-Aug-19 08:41N 42°33' E 011°09'0 0.0
2019-Aug-19 02:23N 42°33' E 011°09'7 0.3
2019-Aug-18 03:05N 42°26' E 011°07'0 0.0
2019-Aug-18 02:59N 42°26' E 011°07'0 0.0
2019-Aug-18 01:47N 42°26' E 011°07'0 0.0
2019-Aug-18 00:56N 42°26' E 011°07'0 0.0
2019-Aug-18 00:26N 42°26' E 011°07'0 0.0
2019-Aug-17 23:59N 42°26' E 011°07'3 0.1
2019-Aug-16 15:33N 42°25' E 011°04'4 6.0
2019-Aug-16 14:48N 42°23' E 010°59'31 4.7
2019-Aug-16 08:08N 42°41' E 010°25'3 4.5
2019-Aug-16 07:29N 42°43' E 010°22'4 0.3
2019-Aug-15 16:35N 42°44' E 010°16'1 2.9
2019-Aug-15 16:19N 42°43' E 010°15'1 2.6
2019-Aug-15 15:59N 42°43' E 010°14'5 2.6
2019-Aug-15 14:07N 42°44' E 010°08'0 1.6
2019-Aug-15 14:00N 42°44' E 010°08'0 0.4
2019-Aug-15 12:59N 42°44' E 010°07'0 0.1
2019-Aug-15 12:30N 42°44' E 010°07'1 2.1
2019-Aug-15 11:57N 42°45' E 010°06'2 3.8
2019-Aug-15 11:30N 42°47' E 010°06'2 3.5
2019-Aug-15 11:00N 42°48' E 010°07'2 4.8
2019-Aug-15 10:30N 42°49' E 010°10'2 2.1
2019-Aug-15 09:44N 42°49' E 010°12'0 0.1
2019-Aug-15 09:29N 42°49' E 010°12'0 0.0
2019-Aug-15 08:59N 42°49' E 010°12'0 0.0
2019-Aug-15 08:08N 42°48' E 010°12'0 0.0
2019-Aug-15 07:47N 42°48' E 010°12'0 0.8
2019-Aug-15 07:30N 42°49' E 010°12'2 3.4
2019-Aug-15 07:00N 42°50' E 010°13'1 1.6
2019-Aug-15 06:30N 42°51' E 010°14'0 0.3
2019-Aug-15 06:00N 42°51' E 010°14'2 4.1
2019-Aug-15 05:29N 42°50' E 010°11'2 4.1
2019-Aug-15 05:00N 42°49' E 010°08'2 3.5
2019-Aug-15 04:30N 42°49' E 010°06'2 3.6
2019-Aug-15 04:00N 42°47' E 010°06'2 4.0
2019-Aug-15 03:29N 42°45' E 010°06'2 3.5
2019-Aug-15 02:49N 42°42' E 010°06'1 3.2
2019-Aug-15 02:22N 42°41' E 010°06'3 3.5
2019-Aug-15 01:31N 42°39' E 010°03'0 3.5
2019-Aug-15 01:24N 42°39' E 010°03'1 3.5
2019-Aug-15 01:00N 42°37' E 010°02'2 3.4
2019-Aug-15 00:29N 42°36' E 010°01'4 3.3
2019-Aug-14 23:13N 42°32' E 009°58'1 3.5
2019-Aug-14 23:00N 42°31' E 009°58'2 3.8
2019-Aug-14 22:30N 42°30' E 009°57'2 3.8
2019-Aug-14 22:00N 42°28' E 009°56'2 3.5
2019-Aug-14 21:29N 42°26' E 009°55'2 3.4
2019-Aug-14 21:00N 42°25' E 009°54'2 3.6
2019-Aug-14 20:30N 42°23' E 009°53'2 3.8
2019-Aug-14 20:00N 42°21' E 009°52'2 3.9
2019-Aug-14 19:30N 42°20' E 009°51'3 3.9
2019-Aug-14 18:46N 42°17' E 009°49'19 2.4
2019-Aug-14 10:42N 41°60' E 009°37'1 6.0
2019-Aug-14 10:29N 41°59' E 009°35'26 1.3
2019-Aug-13 14:36N 41°36' E 009°18'0 0.0
2019-Aug-13 11:37N 41°36' E 009°18'0 0.9
2019-Aug-13 11:30N 41°36' E 009°18'6 0.5
2019-Aug-13 00:48N 41°30' E 009°17'  
Track history (hours):
 
Tides and Currents Weather Stations Pressure Air Temp Water Temp Dewpoint Dewpoint Depression Visibility Wind Speed Wind Dir Waves Ship Positions

Atlantis (Netherlands)

Ship's website: http://www.tallship-company.com/artemis/gb_atlantis.htm

Last reported at 2019-Aug-22 18:10 UTC. Time now 2019-Aug-24 07:45 UTC.
Position N 42°36' E 010°31'.

Length 40 m; draft 4.5 m.

Type: Sailing vessel. MMSI: 246253000.

Date/timePositionNaut miles runAvg speedWind from/ knotsBaromVisibWave heightAir tempDewpointWater temp
2019-Aug-22 18:10N 42°36' E 010°31'7 5.3
2019-Aug-22 16:49N 42°40' E 010°23'4 5.3
2019-Aug-22 16:02N 42°43' E 010°18'0 5.3
2019-Aug-22 15:57N 42°43' E 010°18'1 3.0
2019-Aug-22 15:27N 42°44' E 010°16'2 1.8
2019-Aug-22 14:36N 42°45' E 010°15'0 0.0
2019-Aug-22 13:27N 42°45' E 010°15'1 0.3
2019-Aug-22 10:00N 42°44' E 010°15'3 5.5
2019-Aug-22 09:26N 42°43' E 010°11'4 5.0
2019-Aug-22 08:36N 42°46' E 010°06'1 5.5
2019-Aug-22 08:30N 42°46' E 010°06'2 3.0
2019-Aug-22 08:00N 42°48' E 010°06'0 0.1
2019-Aug-22 07:30N 42°48' E 010°06'0 0.1
2019-Aug-22 06:59N 42°48' E 010°06'2 4.9
2019-Aug-22 06:30N 42°49' E 010°09'2 4.7
2019-Aug-22 06:00N 42°49' E 010°12'0 0.0
2019-Aug-22 05:22N 42°49' E 010°12'0 0.0
2019-Aug-22 04:49N 42°49' E 010°12'0 0.0
2019-Aug-22 04:28N 42°49' E 010°12'0 0.0
2019-Aug-22 03:58N 42°49' E 010°12'0 0.0
2019-Aug-22 03:28N 42°49' E 010°12'0 0.0
2019-Aug-22 02:58N 42°49' E 010°12'0 0.0
2019-Aug-22 02:28N 42°49' E 010°12'0 0.0
2019-Aug-22 01:58N 42°49' E 010°12'0 0.0
2019-Aug-22 01:28N 42°49' E 010°12'0 0.0
2019-Aug-22 00:58N 42°49' E 010°12'0 0.0
2019-Aug-22 00:28N 42°49' E 010°12'0 0.0
2019-Aug-21 23:55N 42°49' E 010°12'0 0.0
2019-Aug-21 23:28N 42°49' E 010°12'0 0.0
2019-Aug-21 22:55N 42°49' E 010°12'0 0.0
2019-Aug-21 22:28N 42°49' E 010°12'0 0.0
2019-Aug-21 21:58N 42°49' E 010°12'0 0.0
2019-Aug-21 21:25N 42°49' E 010°12'0 0.0
2019-Aug-21 20:52N 42°49' E 010°12'0 0.0
2019-Aug-21 20:25N 42°49' E 010°12'0 0.0
2019-Aug-21 19:58N 42°49' E 010°12'0 0.0
2019-Aug-21 19:28N 42°49' E 010°12'0 0.0
2019-Aug-21 18:58N 42°49' E 010°12'0 0.0
2019-Aug-21 18:28N 42°49' E 010°12'0 0.0
2019-Aug-21 17:55N 42°49' E 010°12'0 0.0
2019-Aug-21 17:28N 42°49' E 010°12'0 0.0
2019-Aug-21 17:00N 42°49' E 010°12'3 5.1
2019-Aug-21 16:30N 42°50' E 010°15'3 5.6
2019-Aug-21 16:00N 42°51' E 010°19'1 2.3
2019-Aug-21 15:24N 42°51' E 010°20'0 0.2
2019-Aug-21 14:54N 42°52' E 010°20'2 3.8
2019-Aug-21 14:30N 42°52' E 010°22'2 4.6
2019-Aug-21 13:59N 42°52' E 010°26'0 0.3
2019-Aug-21 12:50N 42°52' E 010°26'0 0.0
2019-Aug-21 12:15N 42°52' E 010°26'0 0.2
2019-Aug-21 11:50N 42°52' E 010°26'0 0.4
2019-Aug-21 11:30N 42°52' E 010°26'2 3.6
2019-Aug-21 11:00N 42°51' E 010°28'3 5.3
2019-Aug-21 10:29N 42°48' E 010°27'3 4.9
2019-Aug-21 09:58N 42°46' E 010°25'1 2.1
2019-Aug-21 09:30N 42°46' E 010°24'0 0.0
2019-Aug-21 09:00N 42°46' E 010°24'0 0.0
2019-Aug-21 08:30N 42°46' E 010°24'0 0.0
2019-Aug-21 08:00N 42°46' E 010°24'0 0.0
2019-Aug-21 07:30N 42°46' E 010°24'0 0.0
2019-Aug-21 07:00N 42°46' E 010°24'0 0.1
2019-Aug-21 06:28N 42°46' E 010°24'0 0.1
2019-Aug-21 05:59N 42°46' E 010°24'0 0.0
2019-Aug-21 05:30N 42°46' E 010°24'0 0.0
2019-Aug-21 05:00N 42°46' E 010°24'0 0.0
2019-Aug-21 04:30N 42°46' E 010°24'0 0.0
2019-Aug-21 03:59N 42°46' E 010°24'0 0.0
2019-Aug-21 03:30N 42°46' E 010°24'0 0.0
2019-Aug-21 02:55N 42°46' E 010°24'0 0.0
2019-Aug-21 02:21N 42°46' E 010°24'0 0.0
2019-Aug-21 01:59N 42°46' E 010°24'0 0.0
2019-Aug-21 01:30N 42°46' E 010°24'0 0.0
2019-Aug-21 01:00N 42°46' E 010°24'0 0.0
2019-Aug-21 00:29N 42°46' E 010°24'0 0.0
2019-Aug-21 00:00N 42°46' E 010°24'0 0.0
2019-Aug-20 23:30N 42°46' E 010°24'0 0.0
2019-Aug-20 23:00N 42°46' E 010°24'0 0.0
2019-Aug-20 22:30N 42°46' E 010°24'0 0.0
2019-Aug-20 21:59N 42°46' E 010°24'0 0.0
2019-Aug-20 21:30N 42°46' E 010°24'0 0.0
2019-Aug-20 20:57N 42°46' E 010°24'0 0.0
2019-Aug-20 20:30N 42°46' E 010°24'0 0.0
2019-Aug-20 19:59N 42°46' E 010°24'0 0.0
2019-Aug-20 19:30N 42°46' E 010°24'0 0.0
2019-Aug-20 18:56N 42°46' E 010°24'0 0.0
2019-Aug-20 17:50N 42°46' E 010°24'0 0.0
2019-Aug-20 16:37N 42°46' E 010°24'0 0.0
2019-Aug-20 16:27N 42°46' E 010°24'0 0.0
2019-Aug-20 15:46N 42°46' E 010°24'0 0.0
2019-Aug-20 13:47N 42°46' E 010°24'0 0.0
2019-Aug-20 13:30N 42°46' E 010°24'0 0.0
2019-Aug-20 12:59N 42°46' E 010°24'0 0.0
2019-Aug-20 12:29N 42°46' E 010°24'0 0.0
2019-Aug-20 11:57N 42°46' E 010°24'0 0.0
2019-Aug-20 11:29N 42°46' E 010°24'0 0.1
2019-Aug-20 10:58N 42°46' E 010°24'0 0.0
2019-Aug-20 10:21N 42°46' E 010°24'0 0.0
2019-Aug-20 09:59N 42°46' E 010°24'2 3.5
2019-Aug-20 09:27N 42°45' E 010°26'3 5.9
2019-Aug-20 09:00N 42°44' E 010°30'3 5.7
2019-Aug-20 08:30N 42°43' E 010°33'3 5.6
2019-Aug-20 08:00N 42°42' E 010°37'3 5.5
2019-Aug-20 07:30N 42°41' E 010°40'3 5.3
2019-Aug-20 07:00N 42°40' E 010°44'3 5.4
2019-Aug-20 06:30N 42°39' E 010°47'3 5.8
2019-Aug-20 06:00N 42°38' E 010°51'3 5.9
2019-Aug-20 05:30N 42°37' E 010°55'3 6.0
2019-Aug-20 04:59N 42°36' E 010°58'3 5.9
2019-Aug-20 04:26N 42°34' E 011°02'2 5.6
2019-Aug-20 04:00N 42°34' E 011°06'2 4.0
2019-Aug-20 03:26N 42°33' E 011°09'0 0.0
2019-Aug-20 02:47N 42°33' E 011°09'0 0.0
2019-Aug-20 02:11N 42°33' E 011°09'0 0.0
2019-Aug-20 01:41N 42°33' E 011°09'0 0.0
2019-Aug-20 01:08N 42°33' E 011°09'0 0.0
2019-Aug-19 21:44N 42°33' E 011°09'0 0.0
2019-Aug-19 21:26N 42°33' E 011°09'0 0.0
2019-Aug-19 20:59N 42°33' E 011°09'0 0.0
2019-Aug-19 19:26N 42°33' E 011°09'0 0.0
2019-Aug-19 17:56N 42°33' E 011°09'0 0.0
2019-Aug-19 17:23N 42°33' E 011°09'0 0.0
2019-Aug-19 16:56N 42°33' E 011°09'0 0.0
2019-Aug-19 16:14N 42°33' E 011°09'0 0.0
2019-Aug-19 15:56N 42°33' E 011°09'0 0.0
2019-Aug-19 15:23N 42°33' E 011°09'0 0.0
2019-Aug-19 14:59N 42°33' E 011°09'0 0.0
2019-Aug-19 14:26N 42°33' E 011°09'0 0.0
2019-Aug-19 13:56N 42°33' E 011°09'0 0.0
2019-Aug-19 13:26N 42°33' E 011°09'0 0.0
2019-Aug-19 12:32N 42°33' E 011°09'0 0.0
2019-Aug-19 11:38N 42°33' E 011°09'0 0.0
2019-Aug-19 11:26N 42°33' E 011°09'0 0.0
2019-Aug-19 10:59N 42°33' E 011°09'0 0.0
2019-Aug-19 10:05N 42°33' E 011°09'0 0.0
2019-Aug-19 09:56N 42°33' E 011°09'0 0.0
2019-Aug-19 09:14N 42°33' E 011°09'0 0.0
2019-Aug-19 08:41N 42°33' E 011°09'0 0.0
2019-Aug-19 02:23N 42°33' E 011°09'7 0.3
2019-Aug-18 03:05N 42°26' E 011°07'0 0.0
2019-Aug-18 02:59N 42°26' E 011°07'0 0.0
2019-Aug-18 01:47N 42°26' E 011°07'0 0.0
2019-Aug-18 00:56N 42°26' E 011°07'0 0.0
2019-Aug-18 00:26N 42°26' E 011°07'0 0.0
2019-Aug-17 23:59N 42°26' E 011°07'3 0.1
2019-Aug-16 15:33N 42°25' E 011°04'4 6.0
2019-Aug-16 14:48N 42°23' E 010°59'31 4.7
2019-Aug-16 08:08N 42°41' E 010°25'3 4.5
2019-Aug-16 07:29N 42°43' E 010°22'4 0.3
2019-Aug-15 16:35N 42°44' E 010°16'1 2.9
2019-Aug-15 16:19N 42°43' E 010°15'1 2.6
2019-Aug-15 15:59N 42°43' E 010°14'5 2.6
2019-Aug-15 14:07N 42°44' E 010°08'0 1.6
2019-Aug-15 14:00N 42°44' E 010°08'0 0.4
2019-Aug-15 12:59N 42°44' E 010°07'0 0.1
2019-Aug-15 12:30N 42°44' E 010°07'1 2.1
2019-Aug-15 11:57N 42°45' E 010°06'2 3.8
2019-Aug-15 11:30N 42°47' E 010°06'2 3.5
2019-Aug-15 11:00N 42°48' E 010°07'2 4.8
2019-Aug-15 10:30N 42°49' E 010°10'2 2.1
2019-Aug-15 09:44N 42°49' E 010°12'0 0.1
2019-Aug-15 09:29N 42°49' E 010°12'0 0.0
2019-Aug-15 08:59N 42°49' E 010°12'0 0.0
2019-Aug-15 08:08N 42°48' E 010°12'0 0.0
2019-Aug-15 07:47N 42°48' E 010°12'0 0.8
2019-Aug-15 07:30N 42°49' E 010°12'2 3.4
2019-Aug-15 07:00N 42°50' E 010°13'1 1.6
2019-Aug-15 06:30N 42°51' E 010°14'0 0.3
2019-Aug-15 06:00N 42°51' E 010°14'2 4.1
2019-Aug-15 05:29N 42°50' E 010°11'2 4.1
2019-Aug-15 05:00N 42°49' E 010°08'2 3.5
2019-Aug-15 04:30N 42°49' E 010°06'2 3.6
2019-Aug-15 04:00N 42°47' E 010°06'2 4.0
2019-Aug-15 03:29N 42°45' E 010°06'2 3.5
2019-Aug-15 02:49N 42°42' E 010°06'1 3.2
2019-Aug-15 02:22N 42°41' E 010°06'3 3.5
2019-Aug-15 01:31N 42°39' E 010°03'0 3.5
2019-Aug-15 01:24N 42°39' E 010°03'1 3.5
2019-Aug-15 01:00N 42°37' E 010°02'2 3.4
2019-Aug-15 00:29N 42°36' E 010°01'4 3.3
2019-Aug-14 23:13N 42°32' E 009°58'1 3.5
2019-Aug-14 23:00N 42°31' E 009°58'2 3.8
2019-Aug-14 22:30N 42°30' E 009°57'2 3.8
2019-Aug-14 22:00N 42°28' E 009°56'2 3.5
2019-Aug-14 21:29N 42°26' E 009°55'2 3.4
2019-Aug-14 21:00N 42°25' E 009°54'2 3.6
2019-Aug-14 20:30N 42°23' E 009°53'2 3.8
2019-Aug-14 20:00N 42°21' E 009°52'2 3.9
2019-Aug-14 19:30N 42°20' E 009°51'3 3.9
2019-Aug-14 18:46N 42°17' E 009°49'19 2.4
2019-Aug-14 10:42N 41°60' E 009°37'1 6.0
2019-Aug-14 10:29N 41°59' E 009°35'26 1.3
2019-Aug-13 14:36N 41°36' E 009°18'0 0.0
2019-Aug-13 11:37N 41°36' E 009°18'0 0.9
2019-Aug-13 11:30N 41°36' E 009°18'6 0.5
2019-Aug-13 00:48N 41°30' E 009°17'  

Dump ship's entire track history